Time;durP1;ratioP1;P1;durP2;ratioP2;P2;SDS_P1;SDS_P2;PMS_P1;PMS_P2;Temp;Humidity;BMP_temperature;BMP_pressure;BME280_temperature;BME280_humidity;BME280_pressure;Samples;Min_cycle;Max_cycle;Signal;HPM_P1;HPM_P2
2021/03/26 00:01:35;;;;;;;16.17;9.93;;;9.30;99.90;;;;;;5092351;28;20028;-78
2021/03/26 00:04:04;;;;;;;22.10;16.45;;;9.20;99.90;;;;;;5092170;28;20028;-78
2021/03/26 00:06:31;;;;;;;12.20;9.23;;;9.10;99.90;;;;;;5092036;28;20032;-78
2021/03/26 00:08:58;;;;;;;12.73;8.90;;;9.00;99.90;;;;;;5091980;28;20066;-78
2021/03/26 00:11:29;;;;;;;13.02;9.57;;;9.00;99.90;;;;;;5092391;28;20024;-78
2021/03/26 00:13:55;;;;;;;10.93;7.80;;;8.80;99.90;;;;;;5090504;28;20415;-78
2021/03/26 00:16:22;;;;;;;13.32;9.90;;;8.80;99.90;;;;;;5092138;28;20040;-78
2021/03/26 00:18:48;;;;;;;15.60;11.40;;;8.90;99.90;;;;;;5092043;28;20028;-78
2021/03/26 00:21:14;;;;;;;21.48;14.63;;;9.40;99.90;;;;;;5091817;28;20395;-78
2021/03/26 00:23:40;;;;;;;19.50;13.88;;;9.10;99.90;;;;;;5092014;28;20024;-78
2021/03/26 00:26:06;;;;;;;11.20;9.07;;;9.50;99.90;;;;;;5091876;28;20039;-78
2021/03/26 00:28:32;;;;;;;16.98;11.10;;;9.10;99.90;;;;;;5091738;28;20021;-78
2021/03/26 00:30:57;;;;;;;12.43;8.05;;;9.30;99.90;;;;;;5091663;28;20024;-78
2021/03/26 00:33:24;;;;;;;12.55;7.78;;;8.80;99.90;;;;;;5092107;28;20016;-78
2021/03/26 00:35:50;;;;;;;12.52;7.60;;;8.80;99.90;;;;;;5094373;28;20058;-78
2021/03/26 00:38:16;;;;;;;11.70;8.60;;;8.70;99.90;;;;;;5095462;28;20024;-78
2021/03/26 00:40:42;;;;;;;10.70;7.75;;;8.80;99.90;;;;;;5095646;28;20032;-78
2021/03/26 00:43:08;;;;;;;18.58;11.75;;;8.70;99.90;;;;;;5094978;28;20046;-78
2021/03/26 00:45:35;;;;;;;14.18;10.15;;;8.60;99.90;;;;;;5095321;28;20031;-78
2021/03/26 00:48:02;;;;;;;9.43;7.70;;;8.50;99.90;;;;;;5095313;28;20024;-78
2021/03/26 00:50:40;;;;;;;12.88;8.45;;;8.50;99.90;;;;;;5095424;28;20028;-78
2021/03/26 00:53:10;;;;;;;10.93;8.75;;;8.70;99.90;;;;;;5095132;28;20130;-78
2021/03/26 00:55:36;;;;;;;10.98;8.15;;;8.70;99.90;;;;;;5095127;28;20115;-78
2021/03/26 00:58:03;;;;;;;12.27;8.30;;;8.60;99.90;;;;;;5094949;28;20107;-78
2021/03/26 01:00:30;;;;;;;13.30;9.35;;;8.70;99.90;;;;;;5095028;28;20056;-78
2021/03/26 01:02:56;;;;;;;12.90;10.38;;;8.60;99.90;;;;;;5095028;28;20055;-78
2021/03/26 01:05:28;;;;;;;10.68;7.70;;;8.50;99.90;;;;;;5095059;28;20071;-78
2021/03/26 01:07:54;;;;;;;10.20;7.70;;;8.40;99.90;;;;;;5094865;28;20098;-78
2021/03/26 01:10:24;;;;;;;11.13;8.32;;;8.40;99.90;;;;;;5094903;28;20054;-78
2021/03/26 01:12:50;;;;;;;11.88;8.40;;;8.40;99.90;;;;;;5094702;28;20020;-78
2021/03/26 01:15:18;;;;;;;10.05;7.63;;;8.40;99.90;;;;;;5094890;28;20467;-78
2021/03/26 01:17:46;;;;;;;12.82;9.05;;;8.30;99.90;;;;;;5094790;28;20024;-78
2021/03/26 01:20:14;;;;;;;16.23;10.57;;;8.70;99.90;;;;;;5094314;28;20032;-78
2021/03/26 01:36:08;;;;;;;12.32;8.38;;;8.00;99.90;;;;;;5078707;28;20031;-78
2021/03/26 01:38:34;;;;;;;9.73;7.93;;;8.30;99.90;;;;;;5094602;28;20020;-78
2021/03/26 01:41:08;;;;;;;11.40;8.13;;;8.20;99.90;;;;;;5094088;28;20024;-78
2021/03/26 01:43:37;;;;;;;11.07;8.85;;;8.10;99.90;;;;;;5094289;28;20481;-78
2021/03/26 01:46:04;;;;;;;12.85;9.20;;;8.20;99.90;;;;;;5093984;28;20384;-78
2021/03/26 01:48:47;;;;;;;10.77;8.57;;;7.90;99.90;;;;;;5093963;28;20027;-78
2021/03/26 01:51:23;;;;;;;12.57;8.15;;;7.70;99.90;;;;;;5094193;28;20048;-78
2021/03/26 01:53:48;;;;;;;9.80;7.97;;;7.70;99.90;;;;;;5093982;28;20361;-78
2021/03/26 01:56:15;;;;;;;9.50;8.13;;;7.80;99.90;;;;;;5093627;28;20031;-78
2021/03/26 01:58:41;;;;;;;13.40;9.20;;;7.80;99.90;;;;;;5094105;28;20537;-78
2021/03/26 02:01:13;;;;;;;13.35;9.15;;;7.70;99.90;;;;;;5093826;28;20028;-78
2021/03/26 02:03:44;;;;;;;11.07;8.13;;;7.90;99.90;;;;;;5093942;28;20093;-78
2021/03/26 02:06:17;;;;;;;12.20;8.52;;;7.50;99.90;;;;;;5093747;28;20028;-78
2021/03/26 02:08:44;;;;;;;13.13;8.80;;;7.40;99.90;;;;;;5093941;28;20032;-78
2021/03/26 02:11:23;;;;;;;13.02;8.00;;;7.40;99.90;;;;;;5093236;28;20545;-78
2021/03/26 02:13:50;;;;;;;11.18;7.45;;;7.20;99.90;;;;;;5093593;28;20501;-78
2021/03/26 02:16:16;;;;;;;9.80;7.90;;;7.20;99.90;;;;;;5093537;28;20035;-78
2021/03/26 02:18:43;;;;;;;10.45;8.38;;;7.20;99.90;;;;;;5093753;28;20114;-78
2021/03/26 02:21:18;;;;;;;12.32;8.80;;;7.50;99.90;;;;;;5093298;28;20069;-78
2021/03/26 02:23:45;;;;;;;10.18;7.93;;;7.30;99.90;;;;;;5093261;28;20099;-78
2021/03/26 02:26:27;;;;;;;9.85;7.60;;;7.20;99.90;;;;;;5093320;28;20115;-78
2021/03/26 02:28:53;;;;;;;10.63;7.57;;;7.20;99.90;;;;;;5093510;28;20020;-78
2021/03/26 02:31:19;;;;;;;10.93;8.07;;;7.50;99.90;;;;;;5093397;28;20101;-78
2021/03/26 02:33:45;;;;;;;9.23;7.95;;;7.10;99.90;;;;;;5093195;28;20055;-78
2021/03/26 02:36:17;;;;;;;10.10;8.15;;;7.20;99.90;;;;;;5093195;28;20031;-78
2021/03/26 02:38:48;;;;;;;9.82;7.63;;;7.10;99.90;;;;;;5093048;28;20027;-78
2021/03/26 02:41:28;;;;;;;12.30;8.75;;;7.10;99.90;;;;;;5093184;28;20020;-78
2021/03/26 02:44:15;;;;;;;11.05;8.40;;;7.20;99.90;;;;;;5093057;28;20077;-78
2021/03/26 02:46:52;;;;;;;12.10;8.52;;;7.10;99.90;;;;;;5093086;28;20024;-78
2021/03/26 02:49:37;;;;;;;10.88;8.02;;;7.10;99.90;;;;;;5093016;28;20020;-78
2021/03/26 02:52:18;;;;;;;10.77;7.82;;;7.30;99.90;;;;;;5093197;28;20042;-78
2021/03/26 02:54:56;;;;;;;11.45;8.00;;;7.00;99.90;;;;;;5092761;28;20020;-78
2021/03/26 02:57:40;;;;;;;9.90;7.55;;;6.80;99.90;;;;;;5092348;28;20024;-78
2021/03/26 03:00:25;;;;;;;12.38;8.02;;;6.70;99.90;;;;;;5092897;28;20016;-78
2021/03/26 03:02:53;;;;;;;10.90;8.52;;;6.70;99.90;;;;;;5093163;28;20020;-78
2021/03/26 03:05:30;;;;;;;11.90;8.48;;;7.00;99.90;;;;;;5092721;28;20071;-78
2021/03/26 03:08:01;;;;;;;12.85;8.73;;;6.70;99.90;;;;;;5092463;28;20056;-78
2021/03/26 03:10:43;;;;;;;12.82;9.00;;;6.80;99.90;;;;;;5092610;28;20384;-78
2021/03/26 03:13:20;;;;;;;10.68;7.60;;;6.70;99.90;;;;;;5092784;28;20032;-78
2021/03/26 03:16:12;;;;;;;11.95;8.15;;;6.80;99.90;;;;;;5092827;28;20016;-78
2021/03/26 03:18:43;;;;;;;10.20;7.38;;;6.90;99.90;;;;;;5086797;28;20040;-78
2021/03/26 03:21:30;;;;;;;12.25;7.75;;;6.80;99.90;;;;;;5091981;28;20066;-78
2021/03/26 03:24:07;;;;;;;10.55;7.75;;;6.80;99.90;;;;;;5092416;28;20024;-78
2021/03/26 03:27:07;;;;;;;11.10;7.90;;;6.90;99.90;;;;;;5092439;28;20028;-78
2021/03/26 03:29:42;;;;;;;15.88;8.50;;;6.90;99.90;;;;;;5092451;28;20027;-78
2021/03/26 03:32:37;;;;;;;9.80;7.93;;;6.90;99.90;;;;;;5092513;28;20440;-78
2021/03/26 03:35:13;;;;;;;11.95;8.63;;;6.90;99.90;;;;;;5091106;28;20046;-78
2021/03/26 03:38:11;;;;;;;12.02;8.20;;;7.10;99.90;;;;;;5092231;28;20031;-78
2021/03/26 03:40:56;;;;;;;13.45;9.02;;;7.10;99.90;;;;;;5092444;28;20023;-78
2021/03/26 03:43:52;;;;;;;10.32;8.80;;;7.10;99.90;;;;;;5092477;28;20016;-78
2021/03/26 03:46:45;;;;;;;10.40;7.80;;;6.90;99.90;;;;;;5092122;28;20499;-78
2021/03/26 03:49:20;;;;;;;14.55;9.85;;;6.90;99.90;;;;;;5092391;28;20400;-78
2021/03/26 03:51:58;;;;;;;12.52;9.38;;;6.90;99.90;;;;;;5092113;28;20027;-78
2021/03/26 03:54:27;;;;;;;11.65;8.68;;;6.90;99.90;;;;;;5092280;28;20099;-78
2021/03/26 03:57:06;;;;;;;13.85;10.10;;;6.80;99.90;;;;;;5092281;28;20549;-78
2021/03/26 03:59:44;;;;;;;13.85;10.00;;;6.70;99.90;;;;;;5092124;28;20028;-78
2021/03/26 04:02:35;;;;;;;13.70;9.35;;;6.60;99.90;;;;;;5092171;28;20032;-78
2021/03/26 04:05:11;;;;;;;17.42;9.55;;;6.50;99.90;;;;;;5090956;28;20082;-78
2021/03/26 04:07:55;;;;;;;12.57;9.27;;;6.40;99.90;;;;;;5092046;28;20103;-78
2021/03/26 04:10:24;;;;;;;14.90;9.75;;;6.50;99.90;;;;;;5093742;28;20020;-78
2021/03/26 04:12:54;;;;;;;15.35;10.88;;;6.50;99.90;;;;;;5096346;28;20024;-78
2021/03/26 04:15:28;;;;;;;15.60;10.75;;;6.70;99.90;;;;;;5095885;28;20032;-78
2021/03/26 04:18:16;;;;;;;16.27;11.02;;;6.30;99.90;;;;;;5095973;28;20111;-78
2021/03/26 04:20:54;;;;;;;16.58;10.13;;;6.20;99.90;;;;;;5095298;28;20136;-78
2021/03/26 04:23:25;;;;;;;13.88;9.57;;;6.20;99.90;;;;;;5095943;28;20024;-78
2021/03/26 04:26:13;;;;;;;13.50;9.48;;;6.40;99.90;;;;;;5095763;28;20057;-78
2021/03/26 04:28:45;;;;;;;13.95;10.05;;;5.90;99.90;;;;;;5089030;28;20373;-78
2021/03/26 04:31:17;;;;;;;14.75;10.18;;;5.90;99.90;;;;;;5095809;28;20021;-78
2021/03/26 04:33:43;;;;;;;15.70;11.07;;;6.00;99.90;;;;;;5095575;28;20016;-78
2021/03/26 04:36:09;;;;;;;16.20;11.02;;;6.00;99.90;;;;;;5095431;28;20070;-78
2021/03/26 04:38:52;;;;;;;14.10;10.07;;;6.10;99.90;;;;;;5095588;28;20062;-78
2021/03/26 04:41:38;;;;;;;16.92;10.40;;;6.30;99.90;;;;;;5095572;28;20077;-78
2021/03/26 04:44:22;;;;;;;15.40;11.30;;;5.90;99.90;;;;;;5095639;28;20400;-78
2021/03/26 04:47:05;;;;;;;14.43;8.98;;;6.30;99.90;;;;;;5095381;28;20100;-78
2021/03/26 04:49:39;;;;;;;12.95;9.35;;;6.20;99.90;;;;;;5095121;28;20016;-78
2021/03/26 04:52:14;;;;;;;12.68;9.07;;;6.40;99.90;;;;;;5095568;28;20353;-78
2021/03/26 04:54:46;;;;;;;14.73;9.27;;;5.90;99.90;;;;;;5095232;28;20058;-78
2021/03/26 04:57:31;;;;;;;13.88;9.75;;;6.10;99.90;;;;;;5095100;28;20020;-78
2021/03/26 05:00:04;;;;;;;14.40;9.48;;;6.00;99.90;;;;;;5095155;28;20031;-78
2021/03/26 05:02:31;;;;;;;15.27;8.45;;;6.00;99.90;;;;;;5095089;28;20480;-78
2021/03/26 05:04:58;;;;;;;11.00;7.70;;;6.40;99.90;;;;;;5094548;28;20028;-78
2021/03/26 05:07:36;;;;;;;10.15;7.47;;;6.20;99.90;;;;;;5093781;28;20038;-78
2021/03/26 05:10:07;;;;;;;9.88;7.68;;;6.10;99.90;;;;;;5094955;28;20028;-78
2021/03/26 05:12:36;;;;;;;12.15;7.63;;;6.20;99.90;;;;;;5094838;28;20091;-78
2021/03/26 05:15:10;;;;;;;11.05;7.88;;;6.60;99.90;;;;;;5094950;28;20103;-78
2021/03/26 05:17:47;;;;;;;10.65;8.68;;;6.20;99.90;;;;;;5094761;28;20028;-78
2021/03/26 05:20:33;;;;;;;16.15;9.57;;;6.30;99.90;;;;;;5094067;28;20048;-78
2021/03/26 05:23:17;;;;;;;17.00;11.05;;;6.20;99.90;;;;;;5094549;28;20019;-78
2021/03/26 05:25:47;;;;;;;12.65;8.73;;;6.10;99.90;;;;;;5094656;28;20063;-78
2021/03/26 05:28:16;;;;;;;14.52;9.93;;;6.20;99.90;;;;;;5094795;28;20020;-78
2021/03/26 05:30:44;;;;;;;11.05;8.60;;;6.50;99.90;;;;;;5094529;28;20024;-78
2021/03/26 05:33:39;;;;;;;13.07;8.70;;;6.30;99.90;;;;;;5094097;28;20028;-78
2021/03/26 05:36:26;;;;;;;14.77;8.63;;;6.30;99.90;;;;;;5094481;28;20484;-78
2021/03/26 05:39:18;;;;;;;13.40;9.35;;;6.30;99.90;;;;;;5094537;28;20024;-78
2021/03/26 05:42:14;;;;;;;13.98;10.20;;;6.30;99.90;;;;;;5094338;28;20020;-78
2021/03/26 05:44:48;;;;;;;15.50;11.00;;;6.30;99.90;;;;;;5094214;28;20127;-78
2021/03/26 05:47:31;;;;;;;17.30;10.40;;;6.20;99.90;;;;;;5093226;28;20067;-78
2021/03/26 05:50:40;;;;;;;16.42;10.00;;;6.40;99.90;;;;;;5092322;28;20028;-78
2021/03/26 05:53:42;;;;;;;15.75;10.50;;;6.10;99.90;;;;;;5093719;28;20024;-78
2021/03/26 05:56:13;;;;;;;18.90;11.13;;;6.10;99.90;;;;;;5093402;28;20035;-78
2021/03/26 05:58:44;;;;;;;15.70;10.63;;;6.10;99.90;;;;;;5093707;28;20032;-78
2021/03/26 06:01:31;;;;;;;17.02;9.57;;;6.20;99.90;;;;;;5094391;28;20024;-79
2021/03/26 06:04:30;;;;;;;12.40;9.35;;;6.00;99.90;;;;;;5093843;28;20039;-78
2021/03/26 06:07:14;;;;;;;18.45;11.52;;;6.00;99.90;;;;;;5093823;28;20035;-78
2021/03/26 06:10:23;;;;;;;26.23;15.30;;;6.40;99.90;;;;;;5093538;28;20032;-78
2021/03/26 06:13:22;;;;;;;19.35;12.27;;;6.30;99.90;;;;;;5090496;28;20058;-78
2021/03/26 06:16:02;;;;;;;18.50;12.75;;;6.50;99.90;;;;;;5093134;28;20038;-77
2021/03/26 06:18:39;;;;;;;22.73;14.25;;;6.30;99.90;;;;;;5093533;28;20024;-77
2021/03/26 06:21:24;;;;;;;15.38;10.98;;;6.10;99.90;;;;;;5093207;28;20059;-78
2021/03/26 06:24:11;;;;;;;13.70;10.20;;;6.30;99.90;;;;;;5093552;28;20584;-78
2021/03/26 06:26:59;;;;;;;17.08;10.75;;;6.30;99.90;;;;;;5092042;28;20042;-78
2021/03/26 06:29:47;;;;;;;13.57;9.20;;;6.40;99.90;;;;;;5093113;28;20047;-78
2021/03/26 06:32:50;;;;;;;13.70;9.52;;;6.40;99.90;;;;;;5092475;28;20024;-78
2021/03/26 06:35:40;;;;;;;13.00;8.77;;;6.50;99.90;;;;;;5093295;28;20032;-80
2021/03/26 06:38:18;;;;;;;11.98;8.82;;;6.60;99.90;;;;;;5093124;28;20450;-79
2021/03/26 06:41:05;;;;;;;11.88;8.85;;;6.70;99.90;;;;;;5093179;28;20028;-78
2021/03/26 06:43:52;;;;;;;17.65;11.10;;;6.70;99.90;;;;;;5091767;28;20028;-79
2021/03/26 06:46:36;;;;;;;16.90;10.93;;;7.00;99.90;;;;;;5092536;28;20032;-78
2021/03/26 06:49:09;;;;;;;15.25;11.27;;;7.10;99.90;;;;;;5092791;28;20050;-78
2021/03/26 06:51:53;;;;;;;15.40;10.77;;;7.50;99.90;;;;;;5091168;28;20028;-78
2021/03/26 06:54:40;;;;;;;15.80;11.00;;;7.30;99.90;;;;;;5092537;28;20017;-78
2021/03/26 06:57:20;;;;;;;17.95;11.05;;;7.40;99.90;;;;;;5092985;28;20024;-78
2021/03/26 07:00:18;;;;;;;18.13;11.40;;;7.50;99.90;;;;;;5089749;28;20020;-78
2021/03/26 07:03:08;;;;;;;11.70;9.70;;;7.60;99.90;;;;;;5089572;28;20051;-78
2021/03/26 07:06:03;;;;;;;13.50;9.13;;;7.70;99.90;;;;;;5092669;28;20035;-78
2021/03/26 07:08:52;;;;;;;17.02;9.60;;;7.80;99.90;;;;;;5091468;28;20028;-78
2021/03/26 07:11:33;;;;;;;14.20;9.55;;;8.10;99.90;;;;;;5092754;28;20024;-78
2021/03/26 07:14:34;;;;;;;13.80;9.85;;;8.10;99.90;;;;;;5092392;28;20024;-78
2021/03/26 07:17:32;;;;;;;13.80;8.32;;;8.30;99.90;;;;;;5092486;28;20496;-78
2021/03/26 07:20:34;;;;;;;14.13;8.75;;;8.40;99.90;;;;;;5092212;28;20841;-78
2021/03/26 07:23:29;;;;;;;11.02;8.25;;;8.50;99.90;;;;;;5049701;28;20037;-78
2021/03/26 07:26:24;;;;;;;14.73;8.93;;;8.70;99.90;;;;;;5033378;28;20037;-78
2021/03/26 07:29:28;;;;;;;14.80;8.45;;;8.90;99.90;;;;;;5049873;28;20074;-78
2021/03/26 07:32:13;;;;;;;13.55;8.57;;;9.10;99.90;;;;;;5049852;28;20029;-78
2021/03/26 07:35:16;;;;;;;17.90;9.50;;;9.40;99.90;;;;;;5049797;28;20056;-78
2021/03/26 07:38:17;;;;;;;12.30;8.57;;;9.60;99.90;;;;;;5049804;28;20575;-78
2021/03/26 07:41:10;;;;;;;12.13;8.32;;;9.80;99.90;;;;;;5049815;28;20037;-78
2021/03/26 07:44:00;;;;;;;11.00;7.88;;;10.10;99.90;;;;;;5050187;28;20119;-78
2021/03/26 07:46:53;;;;;;;14.55;8.98;;;10.30;99.90;;;;;;5053935;28;20083;-78
2021/03/26 07:49:27;;;;;;;11.27;8.00;;;10.60;99.90;;;;;;5054212;28;20056;-78
2021/03/26 07:52:31;;;;;;;14.07;8.10;;;10.60;99.90;;;;;;5053865;28;20028;-78
2021/03/26 07:55:13;;;;;;;12.40;8.98;;;10.70;99.90;;;;;;5054018;28;20477;-78
2021/03/26 07:57:54;;;;;;;16.60;10.55;;;10.80;99.90;;;;;;5053687;28;20473;-78
2021/03/26 08:00:36;;;;;;;18.48;11.75;;;10.80;99.90;;;;;;5093291;28;20066;-78
2021/03/26 08:03:16;;;;;;;21.50;15.40;;;11.00;99.90;;;;;;5096118;28;20069;-78
2021/03/26 08:06:16;;;;;;;28.15;19.73;;;11.20;99.90;;;;;;5096010;28;20077;-78
2021/03/26 08:09:23;;;;;;;29.83;21.65;;;11.50;99.90;;;;;;5096302;28;20036;-78
2021/03/26 08:11:57;;;;;;;30.65;20.23;;;11.80;99.90;;;;;;5089681;28;20068;-79
2021/03/26 08:14:46;;;;;;;23.67;15.57;;;12.00;99.90;;;;;;5096077;28;20027;-79
2021/03/26 08:17:30;;;;;;;28.27;15.73;;;12.20;99.90;;;;;;5094887;28;20093;-78
2021/03/26 08:20:14;;;;;;;18.23;13.00;;;12.10;99.90;;;;;;5094878;28;20419;-78
2021/03/26 08:23:00;;;;;;;23.60;14.32;;;12.30;99.90;;;;;;5095564;28;20460;-78
2021/03/26 08:25:38;;;;;;;20.38;13.82;;;12.70;99.90;;;;;;5094475;28;20403;-78
2021/03/26 08:28:04;;;;;;;17.52;11.93;;;12.80;99.90;;;;;;5095628;28;20028;-78
2021/03/26 08:30:41;;;;;;;14.05;9.73;;;13.00;99.90;;;;;;5095661;28;20020;-78
2021/03/26 08:33:34;;;;;;;19.77;10.02;;;13.10;99.90;;;;;;5095827;28;20020;-78
2021/03/26 08:36:14;;;;;;;16.02;9.52;;;13.30;99.90;;;;;;5095734;28;20028;-78
2021/03/26 08:39:12;;;;;;;10.75;7.85;;;13.70;99.90;;;;;;5095532;28;20032;-78
2021/03/26 08:41:42;;;;;;;11.27;8.20;;;13.90;99.90;;;;;;5095263;28;20107;-78
2021/03/26 08:44:19;;;;;;;14.52;9.30;;;14.10;99.90;;;;;;5095350;28;20063;-78
2021/03/26 08:46:48;;;;;;;16.17;10.27;;;14.20;99.90;;;;;;5095765;28;20111;-78
2021/03/26 08:49:23;;;;;;;11.10;8.27;;;14.40;99.90;;;;;;5095583;28;20031;-78
2021/03/26 08:52:03;;;;;;;14.23;11.23;;;14.50;99.90;;;;;;5094542;28;20035;-79
2021/03/26 08:54:58;;;;;;;15.18;9.15;;;14.50;99.90;;;;;;5093843;28;20024;-79
2021/03/26 08:57:42;;;;;;;10.65;7.97;;;14.30;99.90;;;;;;5093908;28;20027;-79
2021/03/26 09:00:29;;;;;;;11.02;7.05;;;14.60;99.90;;;;;;5094934;28;20020;-79
2021/03/26 09:03:10;;;;;;;6.15;4.30;;;14.90;99.90;;;;;;5094964;28;20020;-79
2021/03/26 09:05:47;;;;;;;5.88;4.18;;;14.90;99.90;;;;;;5094993;28;20028;-79
2021/03/26 09:08:31;;;;;;;9.93;4.57;;;15.00;99.90;;;;;;5095089;28;20472;-79
2021/03/26 09:11:10;;;;;;;7.68;5.10;;;15.10;99.90;;;;;;5094489;28;20020;-79
2021/03/26 09:14:04;;;;;;;8.18;5.05;;;14.70;99.90;;;;;;5094530;28;20028;-79
2021/03/26 09:16:36;;;;;;;6.45;4.82;;;15.00;99.90;;;;;;5094846;28;20510;-79
2021/03/26 09:19:02;;;;;;;6.68;5.00;;;15.60;99.90;;;;;;5094497;28;20168;-79
2021/03/26 09:22:08;;;;;;;6.18;4.30;;;15.90;99.90;;;;;;5094787;28;20527;-79
2021/03/26 09:24:57;;;;;;;7.75;5.40;;;15.70;99.90;;;;;;5094452;28;20032;-79
2021/03/26 09:27:58;;;;;;;6.82;5.13;;;15.90;99.90;;;;;;5094779;28;20035;-79
2021/03/26 09:30:37;;;;;;;7.22;4.75;;;16.00;99.90;;;;;;5092370;28;20511;-79
2021/03/26 09:33:14;;;;;;;8.80;4.88;;;16.70;99.90;;;;;;5094361;28;20053;-79
2021/03/26 09:35:54;;;;;;;5.97;5.30;;;17.10;99.90;;;;;;5094363;28;20496;-79
2021/03/26 09:38:41;;;;;;;7.85;5.43;;;19.30;99.90;;;;;;5094303;28;20451;-79
2021/03/26 09:41:31;;;;;;;5.55;4.93;;;21.20;99.90;;;;;;5093102;28;20100;-79
2021/03/26 09:44:07;;;;;;;10.73;5.28;;;21.50;99.90;;;;;;5094453;28;20383;-79
2021/03/26 09:46:51;;;;;;;10.13;5.68;;;21.00;99.90;;;;;;5094185;28;20028;-79
2021/03/26 09:49:38;;;;;;;8.25;5.25;;;21.60;99.90;;;;;;5094107;28;20098;-79
2021/03/26 09:52:19;;;;;;;9.32;5.63;;;23.90;99.90;;;;;;5094276;28;20476;-79
2021/03/26 09:54:48;;;;;;;9.73;5.70;;;24.20;99.90;;;;;;5093815;28;20028;-79
2021/03/26 09:57:25;;;;;;;8.27;5.55;;;23.50;99.90;;;;;;5093067;28;20376;-79
2021/03/26 10:00:15;;;;;;;6.28;5.32;;;22.90;99.90;;;;;;5092555;28;20404;-79
2021/03/26 10:03:13;;;;;;;6.65;5.68;;;22.60;99.90;;;;;;5094022;28;20503;-79
2021/03/26 10:05:42;;;;;;;7.35;5.75;;;22.30;99.90;;;;;;5093667;28;20434;-79
2021/03/26 10:11:11;;;;;;;7.95;5.90;;;24.70;99.90;;;;;;5093611;28;20024;-79
2021/03/26 10:13:45;;;;;;;7.43;5.57;;;24.60;99.90;;;;;;5093838;28;20020;-79
2021/03/26 10:16:15;;;;;;;7.88;6.30;;;25.70;99.90;;;;;;5093729;28;20028;-79
2021/03/26 10:18:46;;;;;;;7.18;6.40;;;24.70;99.90;;;;;;5093761;28;20026;-79
2021/03/26 10:21:19;;;;;;;8.82;6.38;;;23.50;99.90;;;;;;5093208;28;20115;-79
2021/03/26 10:24:05;;;;;;;7.20;5.95;;;23.60;99.90;;;;;;5093158;28;20407;-79
2021/03/26 10:26:38;;;;;;;9.32;6.60;;;25.30;99.90;;;;;;5092057;28;20036;-79
2021/03/26 10:29:12;;;;;;;7.80;6.10;;;26.90;99.90;;;;;;5093545;28;20024;-79
2021/03/26 10:31:39;;;;;;;7.72;6.13;;;26.90;99.90;;;;;;5093274;28;20020;-79
2021/03/26 10:34:16;;;;;;;7.65;6.07;;;26.60;99.90;;;;;;5093312;28;20031;-79
2021/03/26 10:36:47;;;;;;;9.45;7.43;;;26.90;99.90;;;;;;5091720;28;20467;-79
2021/03/26 10:39:19;;;;;;;9.23;7.15;;;27.30;99.90;;;;;;5093071;28;20063;-79
2021/03/26 10:41:54;;;;;;;8.02;7.07;;;28.40;99.90;;;;;;5091977;28;20031;-79
2021/03/26 10:44:46;;;;;;;11.95;7.40;;;28.10;99.90;;;;;;5093197;28;20028;-79
2021/03/26 10:47:55;;;;;;;9.73;7.90;;;28.60;99.90;;;;;;5050383;28;20132;-79
2021/03/26 10:50:46;;;;;;;12.55;9.20;;;28.60;99.90;;;;;;4971961;28;20096;-79
2021/03/26 10:53:26;;;;;;;14.52;9.73;;;29.70;99.90;;;;;;4971670;28;20585;-79
2021/03/26 10:56:06;;;;;;;11.98;10.10;;;28.90;99.90;;;;;;4971894;28;20543;-79
2021/03/26 10:58:39;;;;;;;14.57;10.05;;;29.90;99.90;;;;;;4971767;28;20027;-79
2021/03/26 11:01:14;;;;;;;11.48;10.15;;;28.60;99.90;;;;;;4971485;28;20023;-79
2021/03/26 11:04:03;;;;;;;12.18;10.90;;;28.60;99.90;;;;;;4971637;28;20531;-80
2021/03/26 11:06:39;;;;;;;12.77;10.70;;;28.10;99.90;;;;;;4971438;28;20042;-80
2021/03/26 11:09:13;;;;;;;14.30;11.50;;;28.20;99.90;;;;;;4971829;28;20415;-80
2021/03/26 11:11:57;;;;;;;15.00;11.20;;;27.20;99.90;;;;;;4971504;28;20046;-80
2021/03/26 11:14:31;;;;;;;17.17;12.00;;;28.20;99.90;;;;;;4971761;28;20027;-80
2021/03/26 11:16:59;;;;;;;14.98;11.15;;;27.60;99.90;;;;;;4971544;28;20047;-80
2021/03/26 11:19:53;;;;;;;15.07;12.27;;;27.70;99.90;;;;;;4971177;28;20051;-80
2021/03/26 11:22:24;;;;;;;15.55;12.60;;;25.10;99.90;;;;;;4954828;28;20070;-80
2021/03/26 11:25:20;;;;;;;14.50;11.68;;;25.40;99.90;;;;;;5061402;28;20032;-80
2021/03/26 11:27:51;;;;;;;18.88;13.73;;;25.70;99.90;;;;;;5077611;28;20123;-80
2021/03/26 11:30:18;;;;;;;14.43;12.98;;;25.70;99.90;;;;;;5092544;28;20115;-80
2021/03/26 11:32:47;;;;;;;20.88;14.63;;;27.90;99.90;;;;;;5092564;28;20028;-80
2021/03/26 11:35:17;;;;;;;18.55;14.35;;;25.50;99.90;;;;;;5092076;28;20480;-80
2021/03/26 11:37:48;;;;;;;17.05;14.45;;;25.30;99.90;;;;;;5092594;28;20015;-80
2021/03/26 11:40:31;;;;;;;17.25;15.45;;;25.50;99.90;;;;;;5092444;28;20024;-80
2021/03/26 11:43:06;;;;;;;19.42;15.30;;;27.80;99.90;;;;;;5092456;28;20106;-80
2021/03/26 11:45:59;;;;;;;18.63;14.85;;;28.50;99.90;;;;;;5092310;28;20036;-80
2021/03/26 11:48:55;;;;;;;19.45;15.38;;;28.50;99.90;;;;;;5091104;28;20111;-80
2021/03/26 11:51:48;;;;;;;18.05;13.35;;;27.70;99.90;;;;;;5090753;28;20399;-80
2021/03/26 11:54:27;;;;;;;18.33;13.60;;;27.70;99.90;;;;;;5092261;28;20016;-80
2021/03/26 11:57:12;;;;;;;13.70;12.32;;;27.30;99.90;;;;;;5092132;28;20500;-80
2021/03/26 11:59:44;;;;;;;14.38;11.90;;;25.70;99.90;;;;;;5092245;28;20016;-80
2021/03/26 12:02:25;;;;;;;13.90;11.55;;;25.20;99.90;;;;;;5092178;28;20028;-80
2021/03/26 12:04:54;;;;;;;13.38;11.57;;;25.20;99.90;;;;;;5091904;28;20024;-80
2021/03/26 12:07:50;;;;;;;14.32;11.32;;;27.20;99.90;;;;;;5092005;28;20032;-80
2021/03/26 12:10:28;;;;;;;12.65;10.30;;;27.40;99.90;;;;;;5076559;28;20056;-80
2021/03/26 12:13:20;;;;;;;11.50;10.32;;;28.30;99.90;;;;;;5092238;28;20063;-80
2021/03/26 12:15:55;;;;;;;14.10;11.23;;;29.10;99.90;;;;;;5087448;28;20036;-80
2021/03/26 12:18:37;;;;;;;12.60;10.32;;;28.20;99.90;;;;;;5091621;28;20024;-80
2021/03/26 12:21:12;;;;;;;13.13;10.88;;;28.00;99.90;;;;;;5091842;28;20052;-80
2021/03/26 12:23:46;;;;;;;12.90;10.85;;;27.10;99.90;;;;;;5092134;28;20438;-80
2021/03/26 12:26:34;;;;;;;16.60;10.85;;;25.90;99.90;;;;;;5092036;28;20024;-80
2021/03/26 12:29:19;;;;;;;12.88;10.38;;;25.10;99.90;;;;;;5092101;28;20020;-80
2021/03/26 12:31:54;;;;;;;15.00;10.57;;;26.90;99.90;;;;;;5094432;28;20099;-80
2021/03/26 12:34:50;;;;;;;13.38;10.93;;;26.20;99.90;;;;;;5095393;28;20053;-80
2021/03/26 12:37:24;;;;;;;12.55;10.60;;;24.80;99.90;;;;;;5095783;28;20017;-80
2021/03/26 12:40:01;;;;;;;14.05;11.80;;;25.50;99.90;;;;;;5108376;28;20024;-80
2021/03/26 12:42:40;;;;;;;12.40;10.95;;;25.40;99.90;;;;;;5116266;28;20080;-80
2021/03/26 12:45:11;;;;;;;14.52;11.73;;;24.70;99.90;;;;;;5116513;28;20529;-80
2021/03/26 12:47:42;;;;;;;13.23;11.80;;;24.50;99.90;;;;;;5115484;28;20399;-80
2021/03/26 12:50:13;;;;;;;14.20;11.30;;;24.50;99.90;;;;;;5114351;28;20112;-80
2021/03/26 12:52:57;;;;;;;13.07;10.55;;;24.80;99.90;;;;;;5115901;28;20036;-80
2021/03/26 12:55:37;;;;;;;13.98;11.60;;;24.20;99.90;;;;;;5115901;28;20494;-80
2021/03/26 12:58:28;;;;;;;12.90;9.90;;;24.40;99.90;;;;;;5115772;28;20406;-80
2021/03/26 13:01:08;;;;;;;15.55;11.70;;;26.20;99.90;;;;;;5115596;28;20031;-80
2021/03/26 13:03:45;;;;;;;12.82;10.82;;;25.00;99.90;;;;;;5115421;28;20023;-80
2021/03/26 13:06:10;;;;;;;15.63;11.30;;;25.10;99.90;;;;;;5115424;28;20023;-80
2021/03/26 13:08:41;;;;;;;15.27;11.68;;;24.50;99.90;;;;;;5115546;28;20096;-80
2021/03/26 13:11:27;;;;;;;13.27;11.35;;;24.20;99.90;;;;;;5115490;28;20027;-80
2021/03/26 13:14:13;;;;;;;15.48;11.32;;;24.50;99.90;;;;;;5115416;28;20475;-80
2021/03/26 13:16:46;;;;;;;12.02;10.40;;;23.10;99.90;;;;;;5115107;28;20026;-80
2021/03/26 13:19:20;;;;;;;15.20;11.52;;;24.70;99.90;;;;;;5115104;28;20092;-80
2021/03/26 13:22:04;;;;;;;12.93;11.30;;;23.70;99.90;;;;;;5097037;28;20032;-80
2021/03/26 13:24:41;;;;;;;17.73;11.73;;;22.60;99.90;;;;;;5094619;28;20077;-80
2021/03/26 13:27:22;;;;;;;13.50;10.68;;;23.00;99.90;;;;;;5094722;28;20046;-80
2021/03/26 13:30:10;;;;;;;15.77;11.45;;;23.40;99.90;;;;;;5094666;28;20458;-80
2021/03/26 13:32:56;;;;;;;12.13;10.65;;;22.30;99.90;;;;;;5094492;28;20043;-80
2021/03/26 13:35:25;;;;;;;15.57;10.75;;;22.40;99.90;;;;;;5087150;28;20070;-80
2021/03/26 13:38:00;;;;;;;14.00;11.48;;;22.60;99.90;;;;;;5094521;28;20028;-80
2021/03/26 13:40:29;;;;;;;13.75;10.75;;;22.30;99.90;;;;;;5094394;28;20126;-80
2021/03/26 13:43:29;;;;;;;12.43;10.15;;;23.00;99.90;;;;;;5094113;28;20065;-80
2021/03/26 13:46:01;;;;;;;14.18;11.18;;;24.00;99.90;;;;;;5091831;28;20040;-80
2021/03/26 13:48:39;;;;;;;23.30;10.88;;;23.30;99.90;;;;;;5094116;28;20047;-80
2021/03/26 13:51:13;;;;;;;13.95;10.88;;;23.20;99.90;;;;;;5094281;28;20021;-80
2021/03/26 13:53:52;;;;;;;15.73;11.50;;;22.50;99.90;;;;;;5094206;28;20027;-80
2021/03/26 13:56:38;;;;;;;17.65;11.23;;;23.20;99.90;;;;;;5094009;28;20038;-80
2021/03/26 13:59:16;;;;;;;13.13;11.18;;;23.60;99.90;;;;;;5094235;28;20026;-80